Time;durP1;ratioP1;P1;durP2;ratioP2;P2;SDS_P1;SDS_P2;PMS_P1;PMS_P2;Temp;Humidity;BMP_temperature;BMP_pressure;BME280_temperature;BME280_humidity;BME280_pressure;Samples;Min_cycle;Max_cycle;Signal;HPM_P1;HPM_P2
2023/06/03 00:00:30;;;;;;;6.95;3.22;;;15.90;49.20;;;17.76;39.41;97641.09;5060339;28;20045;-58
2023/06/03 00:02:57;;;;;;;7.20;4.47;;;15.90;49.20;;;17.73;39.51;97644.22;5060175;28;20416;-59
2023/06/03 00:05:25;;;;;;;8.95;3.83;;;15.80;49.30;;;17.67;39.58;97635.94;5061123;28;20055;-57
2023/06/03 00:07:53;;;;;;;7.13;4.18;;;15.80;49.50;;;17.68;39.63;97636.75;5063623;28;20048;-58
2023/06/03 00:10:20;;;;;;;8.55;3.63;;;15.80;49.60;;;17.70;39.64;97640.09;5061487;28;20047;-55
2023/06/03 00:12:48;;;;;;;6.57;3.40;;;15.80;49.40;;;17.70;39.44;97632.84;5059905;28;20394;-55
2023/06/03 00:15:16;;;;;;;6.72;3.65;;;15.90;49.50;;;17.68;39.75;97637.59;5060607;28;20048;-56
2023/06/03 00:17:43;;;;;;;7.70;3.83;;;15.80;49.50;;;17.66;39.57;97636.97;5063225;28;20036;-57
2023/06/03 00:20:11;;;;;;;6.35;4.20;;;15.80;49.60;;;17.64;39.81;97630.97;5062695;28;20060;-55
2023/06/03 00:22:40;;;;;;;6.28;3.67;;;15.80;49.90;;;17.60;39.82;97627.06;5060054;28;20041;-57
2023/06/03 00:25:11;;;;;;;8.20;3.60;;;15.80;49.70;;;17.58;39.84;97634.47;5059120;28;20389;-57
2023/06/03 00:27:40;;;;;;;8.40;4.03;;;15.70;50.10;;;17.59;39.82;97630.75;5063403;28;20063;-57
2023/06/03 00:30:08;;;;;;;7.40;3.70;;;15.70;50.20;;;17.56;40.13;97633.03;5061564;28;20048;-57
2023/06/03 00:32:36;;;;;;;8.90;3.97;;;15.60;50.30;;;17.54;40.30;97633.22;5059517;28;20501;-58
2023/06/03 00:35:04;;;;;;;7.15;3.72;;;15.60;50.40;;;17.52;40.10;97630.78;5058682;28;20040;-58
2023/06/03 00:37:32;;;;;;;9.90;4.25;;;15.60;50.50;;;17.50;40.09;97634.69;5063052;28;20519;-57
2023/06/03 00:40:00;;;;;;;9.45;3.80;;;15.60;50.50;;;17.48;40.08;97634.06;5061657;28;20055;-58
2023/06/03 00:42:27;;;;;;;12.07;4.03;;;15.60;50.50;;;17.43;40.35;97632.00;5058386;28;20603;-59
2023/06/03 00:44:55;;;;;;;7.57;3.78;;;15.50;50.70;;;17.40;40.55;97627.00;5058369;28;20045;-58
2023/06/03 00:47:23;;;;;;;8.95;4.57;;;15.50;51.00;;;17.38;40.44;97633.63;5061766;28;20053;-58
2023/06/03 00:49:51;;;;;;;8.75;4.13;;;15.40;50.90;;;17.33;40.43;97628.84;5062133;28;20049;-58
2023/06/03 00:52:21;;;;;;;5.85;3.80;;;15.40;51.00;;;17.29;40.73;97625.78;5060162;28;20500;-58
2023/06/03 00:54:51;;;;;;;10.05;4.15;;;15.30;51.30;;;17.27;40.53;97622.47;5038597;28;20053;-55
2023/06/03 00:57:22;;;;;;;7.47;3.88;;;15.30;51.30;;;17.24;40.79;97622.03;5058786;28;20033;-56
2023/06/03 00:59:50;;;;;;;10.52;4.13;;;15.30;51.90;;;17.22;40.97;97621.41;5061455;28;20061;-55
2023/06/03 01:02:19;;;;;;;10.88;4.75;;;15.30;51.60;;;17.20;40.92;97621.59;5061223;28;20048;-57
2023/06/03 01:04:48;;;;;;;8.07;3.90;;;15.30;51.70;;;17.18;41.14;97620.16;5056700;28;20070;-56
2023/06/03 01:07:52;;;;;;;9.18;3.55;;;15.20;51.90;;;17.16;40.90;97619.50;5060329;28;20048;-57
2023/06/03 01:10:24;;;;;;;5.75;3.40;;;15.20;52.20;;;17.13;41.08;97612.69;5013874;28;20052;-57
2023/06/03 01:13:07;;;;;;;7.38;3.55;;;15.10;52.70;;;17.09;41.09;97614.94;5058013;28;20045;-56
2023/06/03 01:15:40;;;;;;;6.22;3.67;;;15.10;52.30;;;17.06;41.10;97625.28;5050223;28;20052;-56
2023/06/03 01:18:08;;;;;;;7.78;3.90;;;15.10;52.50;;;17.03;41.11;97613.06;5057838;28;20049;-58
2023/06/03 01:20:37;;;;;;;6.05;3.40;;;15.10;52.30;;;17.00;41.25;97618.03;5051437;28;20044;-57
2023/06/03 01:23:17;;;;;;;9.18;5.13;;;15.00;52.50;;;16.95;41.29;97617.81;5041237;28;20523;-57
2023/06/03 01:25:46;;;;;;;8.68;4.05;;;14.90;52.80;;;16.89;41.52;97622.16;5064788;28;20061;-57
2023/06/03 01:28:14;;;;;;;7.38;4.10;;;14.90;52.70;;;16.82;41.42;97615.91;5054931;28;20356;-57
2023/06/03 01:30:44;;;;;;;10.88;3.55;;;14.90;52.80;;;16.77;41.44;97611.13;5060764;28;20049;-55
2023/06/03 01:33:12;;;;;;;8.55;4.20;;;14.80;52.90;;;16.75;41.87;97607.81;5043623;28;20053;-58
2023/06/03 01:35:42;;;;;;;6.85;4.35;;;14.80;53.30;;;16.70;41.83;97608.41;5057190;28;20508;-57
2023/06/03 01:38:10;;;;;;;6.55;4.55;;;14.80;53.00;;;16.68;42.00;97620.38;5049375;28;20416;-56
2023/06/03 01:40:39;;;;;;;6.60;3.88;;;14.80;53.30;;;16.67;42.03;97611.50;5050177;28;20044;-57
2023/06/03 01:43:09;;;;;;;9.15;3.88;;;14.80;53.30;;;16.65;42.05;97610.03;5057659;28;20048;-58
2023/06/03 01:45:36;;;;;;;10.70;4.80;;;14.70;53.40;;;16.66;41.95;97617.06;5049753;28;20041;-57
2023/06/03 01:48:04;;;;;;;8.98;4.72;;;14.70;53.30;;;16.66;42.10;97620.56;5056994;28;20045;-57
2023/06/03 01:50:32;;;;;;;5.97;3.67;;;14.80;53.30;;;16.64;42.28;97622.63;5061942;28;20036;-57
2023/06/03 01:53:00;;;;;;;7.70;3.85;;;14.80;53.30;;;16.61;42.32;97617.66;5061486;28;20045;-54
2023/06/03 01:55:27;;;;;;;13.25;4.35;;;14.70;53.70;;;16.62;42.42;97615.81;5058777;28;20063;-57
2023/06/03 01:57:55;;;;;;;8.13;4.15;;;14.70;53.70;;;16.59;42.28;97617.03;5058627;28;20087;-58
2023/06/03 02:00:23;;;;;;;11.00;4.30;;;14.70;53.70;;;16.57;42.30;97616.41;5059055;28;20052;-58
2023/06/03 02:02:50;;;;;;;8.07;3.72;;;14.70;53.80;;;16.54;42.41;97611.44;5059914;28;20048;-58
2023/06/03 02:05:18;;;;;;;7.32;4.03;;;14.60;54.00;;;16.52;42.70;97616.19;5059829;28;20419;-58
2023/06/03 02:07:46;;;;;;;6.88;4.10;;;14.50;54.20;;;16.48;42.71;97621.13;5056733;28;20048;-58
2023/06/03 02:10:14;;;;;;;7.53;3.63;;;14.50;54.40;;;16.46;42.83;97614.28;5053564;28;20053;-58
2023/06/03 02:12:41;;;;;;;5.95;3.45;;;14.50;54.50;;;16.44;42.82;97609.13;5061970;28;20040;-58
2023/06/03 02:15:15;;;;;;;8.30;4.60;;;14.50;54.40;;;16.41;42.66;97606.00;5059398;28;20060;-55
2023/06/03 02:17:43;;;;;;;11.00;4.25;;;14.50;54.50;;;16.36;42.67;97616.50;5056955;28;20045;-58
2023/06/03 02:20:11;;;;;;;7.35;4.55;;;14.30;54.90;;;16.29;42.87;97613.78;5057004;28;20501;-59
2023/06/03 02:22:39;;;;;;;7.78;4.00;;;14.30;55.90;;;16.24;43.04;97613.56;5048865;28;20068;-58
2023/06/03 02:25:08;;;;;;;6.38;5.00;;;14.20;55.20;;;16.18;42.97;97608.97;5057256;28;20505;-58
2023/06/03 02:27:38;;;;;;;9.15;3.90;;;14.20;55.30;;;16.16;43.29;97608.34;5061796;28;20037;-58
2023/06/03 02:30:11;;;;;;;8.90;3.97;;;14.10;55.60;;;16.14;43.30;97603.16;5062071;28;20603;-57
2023/06/03 02:32:39;;;;;;;5.70;4.10;;;14.10;55.70;;;16.11;43.27;97608.91;5060099;28;20044;-58
2023/06/03 02:35:07;;;;;;;11.38;4.15;;;14.20;55.70;;;16.09;43.35;97617.19;5062061;28;20365;-58
2023/06/03 02:37:36;;;;;;;8.90;5.03;;;14.10;55.60;;;16.07;43.37;97621.09;5056918;28;20045;-58
2023/06/03 02:40:05;;;;;;;8.43;3.58;;;14.10;55.70;;;16.06;43.45;97614.06;5056655;28;20045;-56
2023/06/03 02:42:33;;;;;;;8.57;3.53;;;14.10;55.90;;;16.01;43.67;97617.31;5062863;28;20497;-58
2023/06/03 02:45:01;;;;;;;8.30;3.97;;;14.00;55.80;;;15.98;43.63;97607.00;5064414;28;20040;-57
2023/06/03 02:47:28;;;;;;;7.85;3.90;;;14.00;56.00;;;15.94;43.75;97609.25;5061343;28;20051;-57
2023/06/03 02:49:57;;;;;;;11.65;5.18;;;13.90;56.50;;;15.92;43.91;97613.16;5060081;28;20432;-56
2023/06/03 02:52:25;;;;;;;15.43;4.13;;;13.90;56.70;;;15.87;44.07;97604.84;5061351;28;20053;-56
2023/06/03 02:54:53;;;;;;;7.38;4.03;;;13.80;56.70;;;15.83;44.17;97615.16;5063388;28;20057;-57
2023/06/03 02:57:22;;;;;;;6.63;3.95;;;13.80;57.00;;;15.80;44.14;97620.06;5063872;28;20040;-57
2023/06/03 02:59:50;;;;;;;9.32;4.60;;;13.70;57.00;;;15.75;44.20;97616.13;5060309;28;20056;-57
2023/06/03 03:02:22;;;;;;;7.25;3.92;;;13.70;57.50;;;15.74;44.41;97616.31;5061633;28;20049;-57
2023/06/03 03:04:49;;;;;;;11.48;4.15;;;13.80;57.50;;;15.74;44.37;97616.31;5063488;28;20065;-57
2023/06/03 03:07:17;;;;;;;8.75;4.13;;;13.80;57.40;;;15.72;44.59;97619.19;5062621;28;20044;-57
2023/06/03 03:09:45;;;;;;;8.98;4.55;;;13.80;57.30;;;15.72;44.63;97624.53;5061491;28;20056;-58
2023/06/03 03:12:14;;;;;;;7.90;4.53;;;13.80;57.40;;;15.70;44.49;97623.06;5059344;28;20053;-57
2023/06/03 03:14:44;;;;;;;6.80;4.25;;;13.70;57.60;;;15.68;44.64;97623.28;5059858;28;20045;-56
2023/06/03 03:17:12;;;;;;;7.25;4.22;;;13.70;57.70;;;15.66;44.67;97624.47;5060131;28;20211;-59
2023/06/03 03:19:40;;;;;;;10.55;4.93;;;13.70;58.00;;;15.64;44.83;97629.22;5071129;28;20052;-57
2023/06/03 03:22:09;;;;;;;6.35;3.88;;;13.70;58.00;;;15.63;44.80;97628.38;5062986;28;20067;-57
2023/06/03 03:24:37;;;;;;;7.28;3.88;;;13.70;58.10;;;15.61;44.78;97622.38;5060330;28;20052;-57
2023/06/03 03:27:06;;;;;;;7.60;4.05;;;13.60;58.10;;;15.59;44.85;97623.63;5059988;28;20049;-57
2023/06/03 03:29:35;;;;;;;8.95;4.57;;;13.60;58.30;;;15.56;45.15;97622.94;5062057;28;20053;-58
2023/06/03 03:32:08;;;;;;;11.88;4.18;;;13.50;58.50;;;15.55;45.09;97626.66;5064320;28;20428;-57
2023/06/03 03:34:39;;;;;;;6.97;4.22;;;13.50;58.40;;;15.53;45.26;97625.22;5061723;28;20136;-57
2023/06/03 03:37:12;;;;;;;8.10;3.75;;;13.60;58.50;;;15.52;45.21;97624.34;5059515;28;20049;-58
2023/06/03 03:39:42;;;;;;;9.52;4.55;;;13.50;58.90;;;15.50;45.07;97628.28;5056748;28;20048;-56
2023/06/03 03:42:10;;;;;;;11.85;4.28;;;13.50;58.80;;;15.47;45.28;97621.44;5056428;28;20056;-56
2023/06/03 03:44:39;;;;;;;7.82;3.55;;;13.50;58.90;;;15.44;45.52;97626.38;5062636;28;20556;-57
2023/06/03 03:47:09;;;;;;;9.73;4.00;;;13.40;59.10;;;15.45;45.39;97625.31;5063157;28;20396;-57
2023/06/03 03:49:39;;;;;;;8.02;3.75;;;13.40;59.10;;;15.43;45.61;97625.53;5059472;28;20045;-57
2023/06/03 03:52:13;;;;;;;9.70;5.03;;;13.40;59.40;;;15.43;45.65;97630.06;5039498;28;20049;-58
2023/06/03 03:54:51;;;;;;;9.43;4.25;;;13.40;59.30;;;15.41;45.82;97629.41;5052092;28;20060;-57
2023/06/03 03:57:21;;;;;;;7.65;4.47;;;13.40;59.70;;;15.40;45.44;97639.31;5059320;28;20165;-56
2023/06/03 03:59:54;;;;;;;7.07;4.20;;;13.40;59.30;;;15.40;45.97;97631.28;5062514;28;20044;-57
2023/06/03 04:02:24;;;;;;;8.73;4.88;;;13.40;59.40;;;15.39;45.65;97631.47;5061621;28;20045;-57
2023/06/03 04:04:52;;;;;;;7.13;4.35;;;13.40;59.80;;;15.36;45.88;97630.00;5059150;28;20420;-57
2023/06/03 04:07:21;;;;;;;8.75;4.00;;;13.30;59.90;;;15.35;45.84;97636.38;5056468;28;20057;-57
2023/06/03 04:09:49;;;;;;;7.57;4.15;;;13.30;59.70;;;15.32;46.02;97634.09;5062769;28;20059;-57
2023/06/03 04:12:29;;;;;;;5.50;3.33;;;13.30;60.00;;;15.31;46.14;97633.25;5045159;28;20056;-57
2023/06/03 04:15:00;;;;;;;6.90;3.97;;;13.30;60.20;;;15.29;46.19;97637.97;5054299;28;20040;-57
2023/06/03 04:17:37;;;;;;;5.55;4.05;;;13.30;60.20;;;15.28;46.33;97644.38;5042723;28;20056;-57
2023/06/03 04:20:38;;;;;;;9.57;4.10;;;13.40;60.70;;;15.28;46.32;97649.72;5062571;28;20393;-56
2023/06/03 04:23:14;;;;;;;9.50;4.15;;;13.40;60.20;;;15.30;46.36;97639.66;5045424;28;20048;-56
2023/06/03 04:25:43;;;;;;;6.75;4.00;;;13.50;60.20;;;15.33;46.24;97654.50;5069532;28;20051;-54
2023/06/03 04:28:13;;;;;;;5.70;3.80;;;13.50;59.70;;;15.35;46.67;97647.09;5061655;28;20044;-57
2023/06/03 04:30:41;;;;;;;6.75;3.67;;;13.50;60.00;;;15.38;46.62;97645.91;5042708;28;20512;-57
2023/06/03 04:33:09;;;;;;;8.55;4.47;;;13.60;60.00;;;15.41;46.50;97650.88;5058411;28;20041;-57
2023/06/03 04:35:37;;;;;;;6.50;4.55;;;13.60;59.70;;;15.42;46.74;97648.00;5062157;28;20045;-56
2023/06/03 04:38:05;;;;;;;9.15;4.63;;;13.60;60.10;;;15.43;46.61;97648.84;5061494;28;20044;-56
2023/06/03 04:40:33;;;;;;;12.85;6.25;;;13.60;60.00;;;15.46;46.90;97648.47;5059626;28;20052;-55
2023/06/03 04:43:03;;;;;;;7.57;4.10;;;13.70;60.50;;;15.48;46.81;97651.78;5060047;28;20052;-56
2023/06/03 04:45:33;;;;;;;7.75;4.32;;;13.70;60.30;;;15.50;46.91;97652.41;5059825;28;20044;-58
2023/06/03 04:48:02;;;;;;;6.93;4.45;;;13.70;60.30;;;15.50;46.86;97657.78;5061573;28;20040;-58
2023/06/03 04:50:35;;;;;;;7.10;4.15;;;13.70;60.60;;;15.51;46.76;97656.78;5059874;28;20048;-58
2023/06/03 04:53:04;;;;;;;12.23;3.97;;;13.70;60.60;;;15.52;46.97;97653.88;5058043;28;20420;-57
2023/06/03 04:55:32;;;;;;;8.65;4.00;;;13.70;60.80;;;15.57;47.07;97656.00;5059358;28;20497;-58
2023/06/03 04:58:02;;;;;;;6.75;3.97;;;13.70;60.80;;;15.59;46.92;97659.31;5061616;28;20044;-57
2023/06/03 05:00:32;;;;;;;7.50;4.05;;;13.80;60.40;;;15.59;47.21;97643.22;5059846;28;20044;-56
2023/06/03 05:03:08;;;;;;;8.27;3.70;;;13.80;60.80;;;15.60;46.95;97644.03;5057751;28;20053;-57
2023/06/03 05:05:42;;;;;;;6.63;3.78;;;13.80;60.90;;;15.61;47.04;97643.84;5066629;28;20052;-58
2023/06/03 05:08:10;;;;;;;10.88;3.95;;;13.80;62.00;;;15.65;47.31;97645.13;5061187;28;20056;-58
2023/06/03 05:10:39;;;;;;;6.55;4.18;;;13.80;61.10;;;15.67;47.48;97644.94;5058099;28;20499;-57
2023/06/03 05:13:07;;;;;;;9.75;4.50;;;13.90;61.50;;;15.67;47.77;97642.25;5038291;28;20049;-58
2023/06/03 05:15:37;;;;;;;9.48;4.28;;;13.90;61.70;;;15.70;47.44;97644.53;5040386;28;20421;-57
2023/06/03 05:18:05;;;;;;;6.03;3.78;;;13.90;61.40;;;15.73;47.56;97638.81;5061068;28;20048;-57
2023/06/03 05:20:33;;;;;;;14.20;6.20;;;14.00;60.90;;;15.72;47.69;97643.34;5059628;28;20048;-60
2023/06/03 05:23:01;;;;;;;10.02;5.10;;;14.10;61.10;;;15.76;47.66;97641.13;5058966;28;20033;-58
2023/06/03 05:25:30;;;;;;;11.18;4.50;;;14.20;61.10;;;15.80;47.38;97642.41;5058808;28;20408;-58
2023/06/03 05:27:58;;;;;;;8.13;4.30;;;14.20;60.80;;;15.85;47.35;97644.47;5062732;28;20037;-58
2023/06/03 05:30:34;;;;;;;9.95;4.55;;;14.20;60.40;;;15.90;47.32;97640.19;5061134;28;20044;-58
2023/06/03 05:33:03;;;;;;;10.32;4.35;;;14.20;60.40;;;15.95;47.59;97644.97;5057407;28;20056;-58
2023/06/03 05:35:31;;;;;;;9.07;4.15;;;14.30;60.50;;;15.97;47.62;97634.84;5058435;28;20055;-58
2023/06/03 05:37:59;;;;;;;9.77;4.22;;;14.40;60.30;;;16.02;47.70;97639.66;5061344;28;20416;-59
2023/06/03 05:40:27;;;;;;;16.40;4.43;;;14.50;60.20;;;16.07;47.45;97645.25;5060201;28;20040;-59
2023/06/03 05:42:55;;;;;;;8.98;4.20;;;14.60;60.20;;;16.10;47.27;97640.31;5057318;28;20052;-59
2023/06/03 05:45:23;;;;;;;7.82;3.80;;;14.50;59.80;;;16.12;47.19;97650.88;5040962;28;20045;-59
2023/06/03 05:47:51;;;;;;;6.35;3.92;;;14.60;59.30;;;16.16;47.31;97644.09;5049226;28;20056;-59
2023/06/03 05:50:19;;;;;;;9.27;4.15;;;14.60;59.50;;;16.21;47.35;97647.03;5057402;28;20052;-59
2023/06/03 05:52:46;;;;;;;7.22;4.20;;;14.60;59.70;;;16.26;47.44;97644.56;5060400;28;20048;-60
2023/06/03 05:55:14;;;;;;;8.48;4.13;;;14.60;59.80;;;16.30;47.15;97642.31;5062532;28;20044;-58
2023/06/03 05:57:42;;;;;;;9.05;3.95;;;14.80;59.50;;;16.36;47.15;97643.38;5059709;28;20500;-58
2023/06/03 06:00:10;;;;;;;12.10;5.35;;;14.80;59.50;;;16.38;47.20;97644.00;5057328;28;20057;-58
2023/06/03 06:02:41;;;;;;;6.07;4.50;;;14.80;59.40;;;16.42;47.16;97642.56;5061647;28;20396;-57
2023/06/03 06:05:12;;;;;;;6.22;4.32;;;14.90;59.10;;;16.43;47.21;97645.06;5060822;28;20040;-60
2023/06/03 06:07:39;;;;;;;9.68;5.38;;;15.00;58.50;;;16.47;47.17;97643.63;5062146;28;20135;-59
2023/06/03 06:10:07;;;;;;;10.70;4.78;;;15.10;58.40;;;16.54;47.01;97641.00;5060228;28;20048;-58
2023/06/03 06:12:35;;;;;;;8.15;4.38;;;15.20;58.30;;;16.56;47.13;97647.00;5060539;28;20044;-59
2023/06/03 06:15:03;;;;;;;10.10;4.85;;;15.20;58.20;;;16.60;47.22;97647.44;5057401;28;20049;-60
2023/06/03 06:17:32;;;;;;;5.53;4.28;;;15.30;58.30;;;16.66;46.90;97633.19;5061734;28;20049;-57
2023/06/03 06:20:02;;;;;;;8.30;4.28;;;15.40;58.00;;;16.76;47.00;97640.88;5064731;28;20057;-59
2023/06/03 06:22:32;;;;;;;12.27;5.57;;;15.50;58.10;;;16.82;46.68;97642.81;5063672;28;20277;-59
2023/06/03 06:25:02;;;;;;;8.13;4.40;;;15.50;58.00;;;16.86;46.74;97650.25;5061182;28;20060;-59
2023/06/03 06:27:31;;;;;;;6.78;4.28;;;15.50;57.80;;;16.88;46.74;97648.19;5061372;28;20052;-59
2023/06/03 06:30:00;;;;;;;6.93;4.55;;;15.50;57.50;;;16.92;46.73;97652.16;5065012;28;20041;-60
2023/06/03 06:32:30;;;;;;;6.70;4.65;;;15.60;57.70;;;17.00;46.48;97645.78;5063512;28;20045;-59
2023/06/03 06:34:59;;;;;;;9.00;3.88;;;15.70;57.40;;;17.06;46.16;97644.97;5060540;28;20048;-60
2023/06/03 06:37:27;;;;;;;7.30;4.38;;;15.80;56.60;;;17.15;46.09;97642.06;5062817;28;20048;-59
2023/06/03 06:39:56;;;;;;;8.98;4.85;;;15.80;56.40;;;17.23;45.79;97640.00;5060649;28;20097;-59
2023/06/03 06:42:40;;;;;;;8.32;4.60;;;15.90;56.30;;;17.31;45.55;97645.22;5068952;28;20659;-59
2023/06/03 06:45:23;;;;;;;6.60;4.25;;;15.90;55.70;;;17.35;45.49;97644.81;5064192;28;20048;-60
2023/06/03 06:48:06;;;;;;;9.43;5.13;;;16.00;55.50;;;17.40;45.39;97653.09;5062513;28;20056;-59
2023/06/03 06:50:59;;;;;;;7.10;4.55;;;16.00;55.20;;;17.46;45.08;97652.28;5062427;28;20445;-59
2023/06/03 06:53:35;;;;;;;5.53;4.00;;;16.10;55.20;;;17.49;45.02;97644.63;5056894;28;20052;-59
2023/06/03 06:56:15;;;;;;;9.70;5.57;;;16.20;54.90;;;17.53;44.94;97647.75;5048661;28;20048;-59
2023/06/03 06:59:01;;;;;;;8.98;4.60;;;16.20;55.00;;;17.60;44.88;97653.97;5039787;28;20060;-59
2023/06/03 07:01:28;;;;;;;8.80;5.45;;;16.30;55.00;;;17.65;44.86;97654.16;5060195;28;20423;-60
2023/06/03 07:03:58;;;;;;;6.90;4.72;;;16.30;54.80;;;17.67;44.75;97646.69;5063568;28;20047;-60
2023/06/03 07:06:26;;;;;;;7.82;4.70;;;16.30;54.80;;;17.70;44.62;97649.00;5062107;28;20044;-59
2023/06/03 07:08:59;;;;;;;10.45;4.40;;;16.40;54.70;;;17.76;44.85;97643.78;5052057;28;20367;-60
2023/06/03 07:11:27;;;;;;;7.32;4.80;;;16.50;54.70;;;17.80;44.77;97640.50;5056334;28;20072;-60
2023/06/03 07:14:00;;;;;;;7.57;4.47;;;16.50;54.70;;;17.87;44.66;97640.53;5049290;28;20531;-60
2023/06/03 07:16:28;;;;;;;8.38;4.47;;;16.60;54.70;;;17.93;44.68;97634.28;5069933;28;20089;-60
2023/06/03 07:18:56;;;;;;;7.82;5.30;;;16.60;54.60;;;17.98;44.84;97649.84;5051715;28;20053;-60
2023/06/03 07:21:32;;;;;;;7.50;4.80;;;16.70;54.60;;;18.05;44.55;97645.28;5064846;28;20264;-60
2023/06/03 07:24:03;;;;;;;9.32;4.68;;;16.80;54.50;;;18.07;44.35;97646.72;5063146;28;20504;-60
2023/06/03 07:26:34;;;;;;;5.40;4.55;;;16.80;54.20;;;18.10;44.56;97635.53;5062571;28;20041;-60
2023/06/03 07:29:04;;;;;;;6.70;4.13;;;16.80;54.20;;;18.14;44.69;97645.88;5039950;28;20060;-61
2023/06/03 07:31:36;;;;;;;8.95;4.32;;;16.90;54.40;;;18.19;44.75;97649.63;5053749;28;20048;-61
2023/06/03 07:34:04;;;;;;;7.45;4.72;;;17.00;54.50;;;18.24;44.69;97644.44;5046937;28;20044;-62
2023/06/03 07:36:40;;;;;;;11.13;5.43;;;17.10;54.40;;;18.32;44.41;97645.22;5061752;28;20420;-63
2023/06/03 07:39:14;;;;;;;8.00;4.65;;;17.10;53.90;;;18.35;44.05;97653.72;5059074;28;20049;-60
2023/06/03 07:41:51;;;;;;;6.00;4.18;;;17.10;53.60;;;18.39;44.38;97652.25;5061201;28;20045;-62
2023/06/03 07:44:45;;;;;;;8.95;4.85;;;17.20;53.80;;;18.45;44.12;97656.81;5054759;28;20053;-63
2023/06/03 07:47:15;;;;;;;7.72;4.50;;;17.20;52.90;;;18.50;43.87;97650.78;5064524;28;20040;-63
2023/06/03 07:49:48;;;;;;;8.43;4.82;;;17.30;53.40;;;18.53;43.79;97650.34;5062431;28;20048;-68
2023/06/03 07:52:19;;;;;;;8.90;4.35;;;17.30;53.10;;;18.59;44.05;97654.06;5060776;28;20048;-64
2023/06/03 07:54:48;;;;;;;6.78;5.05;;;17.40;53.30;;;18.65;44.04;97650.53;5062955;28;20049;-57
2023/06/03 07:57:17;;;;;;;7.80;4.25;;;17.40;53.50;;;18.70;43.88;97661.50;5063600;28;20040;-63
2023/06/03 07:59:55;;;;;;;7.93;4.65;;;17.50;53.20;;;18.77;43.59;97656.94;5062035;28;20492;-59
2023/06/03 08:02:23;;;;;;;9.38;5.10;;;17.60;52.30;;;18.83;43.36;97655.28;5051974;28;20963;-60
2023/06/03 08:04:55;;;;;;;8.82;5.40;;;17.60;52.40;;;18.88;43.24;97652.75;5038918;28;20388;-60
2023/06/03 08:07:25;;;;;;;11.27;4.85;;;17.70;52.10;;;18.92;43.13;97654.00;5034210;28;20052;-60
2023/06/03 08:09:52;;;;;;;7.53;4.70;;;17.70;52.20;;;18.98;43.24;97657.69;5031255;28;20060;-59
2023/06/03 08:12:33;;;;;;;8.15;5.05;;;17.70;52.50;;;19.02;43.22;97659.75;5036216;28;20037;-60
2023/06/03 08:15:01;;;;;;;8.57;4.18;;;17.80;52.20;;;19.08;42.96;97656.19;5037720;28;20053;-59
2023/06/03 08:17:41;;;;;;;8.38;4.90;;;17.80;51.70;;;19.13;42.75;97663.63;5038023;28;20497;-62
2023/06/03 08:20:10;;;;;;;9.25;5.32;;;17.90;51.50;;;19.15;42.72;97658.03;5036699;28;20063;-60
2023/06/03 08:22:43;;;;;;;7.97;4.75;;;18.00;51.50;;;19.19;42.95;97662.78;5037208;28;20045;-60
2023/06/03 08:25:11;;;;;;;10.95;5.32;;;18.00;51.60;;;19.25;42.88;97664.63;5041467;28;20072;-59
2023/06/03 08:27:39;;;;;;;10.18;5.00;;;18.10;51.90;;;19.33;42.70;97673.47;5037593;28;20048;-59
2023/06/03 08:30:08;;;;;;;7.30;4.80;;;18.20;51.60;;;19.35;42.48;97658.75;5039323;28;20044;-59
2023/06/03 08:32:39;;;;;;;7.20;5.85;;;18.20;51.20;;;19.36;42.71;97657.69;5018432;28;20060;-59
2023/06/03 08:35:09;;;;;;;7.60;5.05;;;18.20;51.40;;;19.45;42.47;97671.78;5037233;28;20052;-59
2023/06/03 08:37:37;;;;;;;9.88;5.63;;;18.30;51.10;;;19.47;42.39;97665.09;5037843;28;20048;-59
2023/06/03 08:40:09;;;;;;;6.25;4.65;;;18.30;51.00;;;19.53;42.22;97673.38;5037174;28;20055;-59
2023/06/03 08:42:44;;;;;;;9.85;4.93;;;18.30;50.60;;;19.58;42.21;97666.28;5036781;28;20041;-58
2023/06/03 08:45:13;;;;;;;8.32;4.93;;;18.40;50.80;;;19.63;42.31;97671.84;5036850;28;20056;-60
2023/06/03 08:48:31;;;;;;;8.90;4.97;;;18.50;51.10;;;19.66;42.14;97674.13;5034593;28;20049;-59
2023/06/03 08:51:05;;;;;;;6.18;5.18;;;18.60;49.90;;;19.75;42.04;97666.59;5034798;28;20076;-59
2023/06/03 08:53:47;;;;;;;7.18;5.80;;;18.60;50.30;;;19.74;41.89;97662.25;5034236;28;20488;-59
2023/06/03 08:56:18;;;;;;;8.18;5.07;;;18.60;49.90;;;19.78;42.07;97671.56;5034141;28;20476;-60
2023/06/03 08:59:00;;;;;;;8.25;5.45;;;18.60;50.70;;;19.84;41.84;97673.38;5036334;28;20398;-58
2023/06/03 09:01:35;;;;;;;11.73;6.18;;;18.70;50.60;;;19.92;41.78;97677.69;5035354;28;20484;-59
2023/06/03 09:04:04;;;;;;;8.45;5.30;;;18.80;50.40;;;19.97;41.71;97675.16;5038485;28;20045;-58
2023/06/03 09:06:32;;;;;;;10.40;5.32;;;18.80;50.00;;;19.98;41.69;97675.97;5033347;28;20436;-58
2023/06/03 09:09:00;;;;;;;8.57;6.05;;;18.80;50.10;;;20.01;41.64;97668.28;5034740;28;20053;-60
2023/06/03 09:11:30;;;;;;;8.65;5.40;;;18.80;50.20;;;20.08;41.50;97672.78;5046291;28;20276;-60
2023/06/03 09:14:00;;;;;;;11.30;5.10;;;18.90;49.90;;;20.14;41.58;97677.28;5043024;28;20045;-60
2023/06/03 09:16:27;;;;;;;6.20;4.78;;;19.00;50.30;;;20.21;41.71;97678.06;5036559;28;20037;-60
2023/06/03 09:18:56;;;;;;;7.03;4.22;;;19.00;49.90;;;20.29;41.38;97674.25;5036418;28;20042;-60
2023/06/03 09:21:25;;;;;;;7.82;5.60;;;19.10;49.50;;;20.33;41.55;97667.34;5035406;28;20047;-59
2023/06/03 09:23:53;;;;;;;9.07;5.65;;;19.20;49.80;;;20.36;41.04;97672.31;5041273;28;20505;-60
2023/06/03 09:26:21;;;;;;;10.23;5.15;;;19.20;49.20;;;20.29;41.23;97671.56;5036821;28;20045;-60
2023/06/03 09:28:48;;;;;;;11.93;5.55;;;19.10;49.80;;;20.37;41.32;97672.06;5036030;28;20048;-60
2023/06/03 09:31:18;;;;;;;6.97;4.70;;;19.20;49.90;;;20.43;41.51;97673.06;5053011;28;20045;-60
2023/06/03 09:33:46;;;;;;;8.10;5.13;;;19.30;50.00;;;20.48;41.41;97675.94;5058353;28;20055;-60
2023/06/03 09:36:17;;;;;;;5.90;4.53;;;19.40;49.90;;;20.54;41.63;97674.22;5062442;28;20045;-60
2023/06/03 09:38:52;;;;;;;8.00;5.50;;;19.40;49.80;;;20.61;41.41;97672.31;5061115;28;20188;-60
2023/06/03 09:41:26;;;;;;;8.77;5.20;;;19.50;49.20;;;20.76;41.05;97671.91;5049735;28;20048;-60
2023/06/03 09:48:44;;;;;;;7.50;5.38;;;19.80;48.80;;;21.09;40.95;97668.78;5039309;28;20060;-60
2023/06/03 09:51:12;;;;;;;8.95;6.00;;;19.90;49.10;;;21.16;40.22;97664.13;5033829;28;20720;-60
2023/06/03 09:53:40;;;;;;;9.13;4.95;;;20.00;48.60;;;21.21;40.90;97661.56;5040492;28;20058;-60
2023/06/03 09:56:51;;;;;;;7.47;5.15;;;20.20;48.80;;;21.30;41.05;97659.34;5036411;28;20045;-60
2023/06/03 09:59:25;;;;;;;7.47;5.85;;;20.30;48.30;;;21.49;40.54;97668.28;5052473;28;20049;-60
2023/06/03 10:01:54;;;;;;;6.53;5.00;;;20.40;48.50;;;21.59;40.13;97654.19;5064639;28;20045;-61
2023/06/03 10:04:36;;;;;;;10.23;5.00;;;20.50;48.40;;;21.68;40.18;97655.50;5066071;28;20041;-60
2023/06/03 10:07:17;;;;;;;10.65;5.65;;;20.60;48.10;;;21.77;39.93;97654.13;5051525;28;20512;-61
2023/06/03 10:09:47;;;;;;;10.02;6.25;;;20.70;47.60;;;21.87;40.17;97653.53;5062192;28;20049;-61
2023/06/03 10:12:27;;;;;;;9.07;5.82;;;20.70;47.90;;;21.91;40.22;97648.47;5066151;28;20037;-61
2023/06/03 10:14:58;;;;;;;11.13;5.30;;;20.80;48.00;;;22.01;40.19;97649.53;5063021;28;20049;-62
2023/06/03 10:17:26;;;;;;;7.57;5.53;;;20.90;47.90;;;22.13;39.81;97651.44;5062307;28;20044;-60
2023/06/03 10:19:54;;;;;;;7.18;6.47;;;21.00;47.90;;;22.23;39.74;97643.53;5065087;28;20049;-61
2023/06/03 10:22:25;;;;;;;8.32;5.47;;;21.10;47.60;;;22.27;39.43;97644.72;5066278;28;20073;-60
2023/06/03 10:24:56;;;;;;;7.38;5.40;;;21.20;47.30;;;22.34;39.55;97645.44;5062885;28;20492;-59
2023/06/03 10:27:24;;;;;;;10.27;5.90;;;21.20;47.00;;;22.43;39.24;97651.34;5062094;28;20056;-58
2023/06/03 10:29:53;;;;;;;11.13;5.55;;;21.30;46.30;;;22.47;39.26;97643.53;5064058;28;20493;-58
2023/06/03 10:32:23;;;;;;;9.98;6.13;;;21.40;46.70;;;22.56;39.04;97636.69;5065579;28;20036;-59
2023/06/03 10:34:53;;;;;;;6.57;5.18;;;21.50;46.90;;;22.65;39.32;97637.16;5061818;28;20396;-59
2023/06/03 10:37:23;;;;;;;10.23;5.75;;;21.60;46.80;;;22.75;39.02;97638.19;5061025;28;20500;-59